Time;durP1;ratioP1;P1;durP2;ratioP2;P2;SDS_P1;SDS_P2;PMS_P1;PMS_P2;Temp;Humidity;BMP_temperature;BMP_pressure;BME280_temperature;BME280_humidity;BME280_pressure;Samples;Min_cycle;Max_cycle;Signal;HPM_P1;HPM_P2
2021/04/25 00:01:50;;;;;;;16.10;6.42;;;;;;;0.24;75.39;100484.29;1678367;85;21219;-75
2021/04/25 00:04:18;;;;;;;20.82;8.38;;;;;;;0.24;75.64;100479.11;1665437;85;21164;-74
2021/04/25 00:06:46;;;;;;;19.12;8.30;;;;;;;0.19;75.75;100469.56;1651270;86;21671;-72
2021/04/25 00:09:19;;;;;;;22.22;8.90;;;;;;;0.14;75.70;100467.79;1651522;86;21256;-73
2021/04/25 00:11:47;;;;;;;31.95;12.13;;;;;;;0.09;75.68;100470.33;1651249;86;21635;-76
2021/04/25 00:14:15;;;;;;;43.08;15.83;;;;;;;0.05;76.07;100472.44;1651365;86;21219;-76
2021/04/25 00:16:44;;;;;;;46.90;16.90;;;;;;;-0.01;75.98;100470.63;1671821;85;21852;-75
2021/04/25 00:19:12;;;;;;;45.17;17.48;;;;;;;-0.06;76.19;100462.38;1665988;85;21212;-76
2021/04/25 00:21:40;;;;;;;41.23;16.25;;;;;;;-0.11;76.34;100464.05;1648690;87;21263;-74
2021/04/25 00:24:08;;;;;;;39.27;14.87;;;;;;;-0.18;76.34;100457.92;1648674;85;21253;-74
2021/04/25 00:26:36;;;;;;;40.20;16.42;;;;;;;-0.20;76.77;100460.06;1648569;87;21187;-73
2021/04/25 00:29:04;;;;;;;36.25;13.90;;;;;;;-0.26;76.51;100461.70;1648472;87;21243;-74
2021/04/25 00:31:33;;;;;;;25.10;11.15;;;;;;;-0.33;76.41;100463.77;1648493;85;21226;-74
2021/04/25 00:34:01;;;;;;;31.97;13.15;;;;;;;-0.39;76.72;100458.53;1647928;87;21147;-73
2021/04/25 00:36:29;;;;;;;28.92;11.55;;;;;;;-0.45;77.02;100457.16;1648067;87;21549;-73
2021/04/25 00:38:58;;;;;;;26.65;11.25;;;;;;;-0.49;77.40;100460.55;1647149;87;21234;-73
2021/04/25 00:41:25;;;;;;;28.42;11.50;;;;;;;-0.54;77.51;100451.86;1665292;85;21924;-75
2021/04/25 00:43:54;;;;;;;30.12;12.47;;;;;;;-0.59;77.77;100451.80;1663620;85;21214;-74
2021/04/25 00:46:22;;;;;;;27.05;11.93;;;;;;;-0.66;78.11;100446.10;1653759;86;21249;-75
2021/04/25 00:48:52;;;;;;;32.85;15.32;;;;;;;-0.67;78.56;100454.69;1653791;86;21173;-75
2021/04/25 00:51:23;;;;;;;32.13;13.87;;;;;;;-0.69;78.90;100440.86;1654105;85;22120;-75
2021/04/25 00:53:51;;;;;;;40.33;16.62;;;;;;;-0.68;79.33;100447.80;1653862;85;21384;-74
2021/04/25 00:56:22;;;;;;;30.08;14.60;;;;;;;-0.67;79.62;100444.34;1653815;86;22457;-75
2021/04/25 00:58:50;;;;;;;36.30;15.58;;;;;;;-0.66;80.43;100439.63;1654004;86;21224;-74
2021/04/25 01:01:17;;;;;;;41.98;18.77;;;;;;;-0.64;80.21;100436.65;1625724;86;21253;-73
2021/04/25 01:03:46;;;;;;;34.98;16.48;;;;;;;-0.62;80.43;100432.77;1653902;86;21213;-74
2021/04/25 01:06:16;;;;;;;39.95;19.15;;;;;;;-0.60;80.29;100433.23;1653648;86;21173;-74
2021/04/25 01:08:44;;;;;;;37.65;18.07;;;;;;;-0.57;80.33;100432.42;1653860;86;21262;-73
2021/04/25 01:11:12;;;;;;;39.40;17.60;;;;;;;-0.55;80.24;100429.01;1653803;85;21562;-75
2021/04/25 01:13:40;;;;;;;34.10;15.20;;;;;;;-0.54;80.03;100426.84;1653869;85;21245;-73
2021/04/25 01:16:08;;;;;;;51.45;21.87;;;;;;;-0.52;79.92;100425.59;1653742;86;21204;-74
2021/04/25 01:18:36;;;;;;;47.55;19.55;;;;;;;-0.51;79.92;100422.13;1628935;86;21884;-75
2021/04/25 01:21:05;;;;;;;57.45;22.55;;;;;;;-0.52;79.79;100425.59;1615280;88;21272;-74
2021/04/25 01:23:33;;;;;;;44.83;18.00;;;;;;;-0.53;79.89;100423.83;1659768;86;21618;-74
2021/04/25 01:26:01;;;;;;;52.08;19.60;;;;;;;-0.54;79.88;100423.40;1662656;85;21214;-73
2021/04/25 01:28:30;;;;;;;58.02;22.37;;;;;;;-0.56;80.06;100419.92;1687412;84;21701;-74
2021/04/25 01:30:59;;;;;;;54.27;20.80;;;;;;;-0.57;80.14;100421.64;1687262;83;21843;-74
2021/04/25 01:33:28;;;;;;;59.10;22.80;;;;;;;-0.59;80.86;100410.84;1687383;84;21226;-74
2021/04/25 01:35:56;;;;;;;53.70;22.32;;;;;;;-0.64;80.54;100398.70;1687154;84;21147;-74
2021/04/25 01:38:24;;;;;;;58.55;21.73;;;;;;;-0.60;80.91;100411.23;1687484;85;21147;-73
2021/04/25 01:40:52;;;;;;;53.33;21.35;;;;;;;-0.60;80.68;100409.94;1687238;84;21594;-74
2021/04/25 01:43:20;;;;;;;58.25;23.57;;;;;;;-0.64;80.67;100405.17;1683041;84;22422;-73
2021/04/25 01:45:51;;;;;;;59.38;23.20;;;;;;;-0.66;80.77;100405.58;1663209;86;21666;-73
2021/04/25 01:48:19;;;;;;;61.83;24.60;;;;;;;-0.69;80.65;100404.25;1642979;86;21189;-73
2021/04/25 01:50:47;;;;;;;56.88;22.80;;;;;;;-0.74;80.69;100399.42;1636101;87;21205;-73
2021/04/25 01:53:18;;;;;;;61.95;23.57;;;;;;;-0.77;80.41;100406.28;1636489;87;21122;-72
2021/04/25 01:55:46;;;;;;;60.85;23.65;;;;;;;-0.82;81.02;100403.64;1635976;86;21398;-75
2021/04/25 01:58:15;;;;;;;64.77;24.43;;;;;;;-0.86;80.97;100401.85;1636163;87;21703;-73
2021/04/25 02:00:45;;;;;;;56.73;22.20;;;;;;;-0.91;81.07;100402.22;1636116;86;21673;-73
2021/04/25 02:03:14;;;;;;;44.83;16.97;;;;;;;-0.95;81.37;100395.27;1636391;87;22184;-73
2021/04/25 02:05:43;;;;;;;52.05;20.35;;;;;;;-1.00;81.63;100393.91;1636000;86;21147;-73
2021/04/25 02:08:12;;;;;;;51.02;20.08;;;;;;;-1.02;81.79;100398.61;1636187;87;21231;-74
2021/04/25 02:10:41;;;;;;;43.05;18.20;;;;;;;-1.07;82.07;100394.23;1636005;87;21222;-74
2021/04/25 02:13:09;;;;;;;49.42;20.68;;;;;;;-1.10;82.26;100392.91;1636114;87;21212;-74
2021/04/25 02:15:39;;;;;;;58.33;19.82;;;;;;;-1.10;82.34;100397.22;1636160;87;21209;-73
2021/04/25 02:18:07;;;;;;;46.63;19.95;;;;;;;-1.14;82.38;100391.12;1636064;87;21644;-73
2021/04/25 02:20:37;;;;;;;59.55;20.92;;;;;;;-1.15;82.40;100392.38;1636073;87;21389;-74
2021/04/25 02:23:05;;;;;;;43.75;18.98;;;;;;;-1.19;82.44;100392.78;1635923;87;21488;-73
2021/04/25 02:25:32;;;;;;;59.30;23.05;;;;;;;-1.24;82.36;100392.25;1635917;86;21167;-72
2021/04/25 02:28:00;;;;;;;55.60;21.10;;;;;;;-1.32;82.02;100389.13;1661199;86;22242;-73
2021/04/25 02:30:34;;;;;;;48.08;18.52;;;;;;;-1.36;82.53;100391.64;1663053;86;21209;-72
2021/04/25 02:33:03;;;;;;;37.00;16.00;;;;;;;-1.39;82.88;100389.87;1662834;86;21389;-73
2021/04/25 02:35:31;;;;;;;56.33;20.57;;;;;;;-1.36;83.44;100394.22;1662989;86;21642;-74
2021/04/25 02:38:00;;;;;;;50.48;21.48;;;;;;;-1.36;83.29;100400.68;1663075;86;21206;-73
2021/04/25 02:40:29;;;;;;;53.73;21.30;;;;;;;-1.41;83.06;100387.69;1663129;86;21222;-74
2021/04/25 02:42:58;;;;;;;35.28;13.62;;;;;;;-1.44;83.13;100389.37;1663235;86;21182;-74
2021/04/25 02:45:27;;;;;;;55.95;19.98;;;;;;;-1.45;83.37;100387.62;1664420;84;21350;-73
2021/04/25 02:48:03;;;;;;;57.43;23.32;;;;;;;-1.44;83.96;100390.67;1666517;86;21182;-74
2021/04/25 02:50:36;;;;;;;65.60;24.87;;;;;;;-1.41;84.43;100382.95;1666490;86;21142;-74
2021/04/25 02:53:04;;;;;;;60.48;23.52;;;;;;;-1.37;84.29;100386.91;1664893;85;21157;-73
2021/04/25 02:55:33;;;;;;;51.02;20.35;;;;;;;-1.36;84.22;100381.30;1663348;86;21174;-73
2021/04/25 02:58:01;;;;;;;52.48;20.90;;;;;;;-1.31;84.71;100391.31;1663196;85;21669;-73
2021/04/25 03:00:31;;;;;;;60.83;20.02;;;;;;;-1.26;84.71;100389.66;1663014;86;21397;-74
2021/04/25 03:02:59;;;;;;;66.22;26.10;;;;;;;-1.21;84.84;100384.12;1647202;85;21316;-72
2021/04/25 03:05:27;;;;;;;60.23;24.47;;;;;;;-1.18;84.28;100384.16;1636040;87;21203;-73
2021/04/25 03:07:55;;;;;;;57.33;23.25;;;;;;;-1.13;84.18;100389.00;1635872;87;21234;-75
2021/04/25 03:10:24;;;;;;;49.67;21.07;;;;;;;-1.08;84.11;100386.48;1636050;87;21836;-74
2021/04/25 03:12:53;;;;;;;51.88;22.15;;;;;;;-1.01;84.23;100383.53;1635974;87;21199;-74
2021/04/25 03:15:21;;;;;;;52.90;21.35;;;;;;;-0.91;84.51;100385.41;1636282;86;21718;-74
2021/04/25 03:17:49;;;;;;;57.93;23.70;;;;;;;-0.69;84.50;100384.86;1636116;86;21222;-74
2021/04/25 03:20:20;;;;;;;62.17;27.05;;;;;;;-0.24;84.20;100387.52;1636127;87;21218;-74
2021/04/25 03:22:48;;;;;;;56.08;24.10;;;;;;;0.24;83.25;100384.56;1636373;86;22335;-75
2021/04/25 03:25:16;;;;;;;60.85;24.92;;;;;;;0.69;82.35;100377.59;1636101;87;21619;-73
2021/04/25 03:27:44;;;;;;;53.98;23.00;;;;;;;1.12;80.58;100375.24;1658569;86;21181;-74
2021/04/25 03:30:14;;;;;;;42.05;18.80;;;;;;;1.49;79.05;100377.14;1663100;85;21186;-74
2021/04/25 03:32:42;;;;;;;45.90;19.10;;;;;;;1.64;76.96;100375.91;1663386;86;21653;-75
2021/04/25 03:35:13;;;;;;;45.08;18.73;;;;;;;1.63;76.92;100380.66;1663010;86;21966;-75
2021/04/25 03:37:41;;;;;;;42.05;19.87;;;;;;;1.55;76.80;100379.78;1663292;86;21197;-74
2021/04/25 03:40:11;;;;;;;39.38;17.80;;;;;;;1.44;76.48;100381.88;1662874;86;21504;-74
2021/04/25 03:42:40;;;;;;;47.20;20.15;;;;;;;1.36;76.20;100390.08;1663054;86;21676;-74
2021/04/25 03:45:16;;;;;;;41.00;18.35;;;;;;;1.27;75.84;100391.34;1660170;85;21207;-74
2021/04/25 03:47:47;;;;;;;38.02;18.73;;;;;;;1.17;75.95;100367.48;1672091;85;21450;-75
2021/04/25 03:50:17;;;;;;;39.92;14.68;;;;;;;1.11;76.24;100359.70;1672157;85;21203;-75
2021/04/25 03:52:46;;;;;;;27.98;12.53;;;;;;;1.09;76.63;100362.70;1672043;85;21208;-76
2021/04/25 03:55:16;;;;;;;31.82;13.65;;;;;;;1.08;76.47;100367.44;1671983;84;22114;-76
2021/04/25 03:57:44;;;;;;;37.05;13.95;;;;;;;1.10;76.71;100359.23;1672144;84;21591;-75
2021/04/25 04:00:14;;;;;;;34.83;13.62;;;;;;;1.15;76.94;100360.13;1672099;85;22200;-75
2021/04/25 04:02:42;;;;;;;27.67;12.63;;;;;;;1.18;77.21;100364.91;1671980;85;21729;-75
2021/04/25 04:05:11;;;;;;;33.40;14.45;;;;;;;1.25;77.39;100363.22;1671878;84;21244;-76
2021/04/25 04:07:39;;;;;;;30.65;14.70;;;;;;;1.44;77.89;100363.72;1672211;85;21691;-75
2021/04/25 04:10:08;;;;;;;33.53;14.78;;;;;;;1.85;78.28;100359.09;1673112;85;21227;-76
2021/04/25 04:12:35;;;;;;;26.87;13.62;;;;;;;2.58;76.68;100358.72;1685656;83;21232;-75
2021/04/25 04:15:06;;;;;;;28.83;13.88;;;;;;;3.39;74.32;100360.70;1684301;84;21253;-79
2021/04/25 04:17:34;;;;;;;27.25;13.35;;;;;;;4.13;71.50;100358.54;1676329;84;21249;-80
2021/04/25 04:20:02;;;;;;;28.67;12.85;;;;;;;4.48;68.35;100350.88;1672325;84;21661;-76
2021/04/25 04:22:32;;;;;;;26.45;11.50;;;;;;;4.54;67.33;100354.75;1681961;84;21198;-75
2021/04/25 04:25:00;;;;;;;21.57;10.78;;;;;;;4.97;65.93;100350.40;1669965;84;21550;-75
2021/04/25 04:27:28;;;;;;;20.52;10.32;;;;;;;5.47;63.24;100354.18;1685275;84;21679;-76
2021/04/25 04:29:57;;;;;;;17.10;9.23;;;;;;;5.90;61.99;100349.69;1678445;83;21206;-77
2021/04/25 04:32:24;;;;;;;16.73;9.23;;;;;;;6.25;59.50;100351.80;1671884;84;21197;-78
2021/04/25 04:34:54;;;;;;;14.95;9.20;;;;;;;6.55;58.03;100346.09;1671888;85;21194;-79
2021/04/25 04:37:24;;;;;;;20.48;9.63;;;;;;;6.96;58.40;100347.12;1672994;84;21401;-79
2021/04/25 04:39:52;;;;;;;16.52;8.80;;;;;;;7.27;56.20;100346.95;1687573;84;21332;-78
2021/04/25 04:42:20;;;;;;;16.02;8.85;;;;;;;7.63;56.27;100353.62;1686709;84;22197;-79
2021/04/25 04:44:50;;;;;;;16.87;8.80;;;;;;;8.16;56.08;100345.44;1672437;84;21535;-77
2021/04/25 04:47:18;;;;;;;15.95;8.63;;;;;;;8.76;54.38;100348.78;1620961;86;22148;-79
2021/04/25 04:49:47;;;;;;;17.35;9.25;;;;;;;9.24;51.17;100343.56;1625715;86;21677;-77
2021/04/25 04:52:15;;;;;;;19.77;9.43;;;;;;;9.59;48.45;100340.37;1625342;88;21234;-77
2021/04/25 04:54:45;;;;;;;18.85;9.40;;;;;;;9.83;46.40;100334.84;1623286;87;21229;-79
2021/04/25 04:57:15;;;;;;;19.67;9.65;;;;;;;9.94;47.37;100334.48;1659940;85;21242;-78
2021/04/25 04:59:43;;;;;;;17.42;9.68;;;;;;;10.22;45.84;100329.23;1665018;85;21231;-79
2021/04/25 05:02:13;;;;;;;18.65;9.75;;;;;;;10.44;45.53;100334.67;1669576;85;21681;-78
2021/04/25 05:04:41;;;;;;;20.70;9.38;;;;;;;10.81;45.12;100334.74;1656335;85;21234;-78
2021/04/25 05:07:09;;;;;;;21.95;10.58;;;;;;;11.09;44.67;100334.19;1654055;86;21568;-77
2021/04/25 05:09:37;;;;;;;16.32;9.48;;;;;;;11.30;42.91;100329.05;1654298;86;21666;-77
2021/04/25 05:12:07;;;;;;;16.50;8.90;;;;;;;11.46;41.28;100329.34;1660345;84;21236;-77
2021/04/25 05:14:35;;;;;;;15.38;8.03;;;;;;;11.57;41.51;100331.09;1677175;83;22667;-78
2021/04/25 05:17:02;;;;;;;15.85;8.43;;;;;;;11.64;40.21;100326.45;1681793;84;21238;-78
2021/04/25 05:19:30;;;;;;;16.10;6.92;;;;;;;11.69;40.85;100321.41;1687462;85;21206;-78
2021/04/25 05:21:59;;;;;;;12.45;7.25;;;;;;;11.84;41.13;100319.94;1648953;85;21220;-78
2021/04/25 05:24:27;;;;;;;13.83;7.17;;;;;;;12.11;41.06;100321.13;1680795;85;21167;-78
2021/04/25 05:26:56;;;;;;;17.42;7.58;;;;;;;12.34;39.11;100332.94;1683618;84;21467;-79
2021/04/25 05:29:26;;;;;;;12.47;6.62;;;;;;;12.60;38.92;100333.62;1687503;85;21252;-79
2021/04/25 05:31:54;;;;;;;13.60;7.30;;;;;;;12.90;37.32;100320.03;1667699;85;21242;-78
2021/04/25 05:34:22;;;;;;;12.23;6.70;;;;;;;13.12;37.35;100327.89;1654897;85;21217;-80
2021/04/25 05:36:51;;;;;;;10.15;5.58;;;;;;;13.32;36.73;100329.21;1658380;85;21242;-78
2021/04/25 05:39:19;;;;;;;9.53;5.80;;;;;;;13.64;35.52;100318.91;1659401;85;21227;-80
2021/04/25 05:41:47;;;;;;;12.23;6.10;;;;;;;13.91;36.22;100316.76;1664570;84;21255;-77
2021/04/25 05:44:16;;;;;;;15.32;6.15;;;;;;;14.26;35.20;100312.86;1656927;84;21202;-72
2021/04/25 05:46:46;;;;;;;9.18;5.67;;;;;;;14.56;34.89;100310.52;1640581;86;21436;-75
2021/04/25 05:49:21;;;;;;;8.60;5.05;;;;;;;15.01;35.05;100308.22;1613004;86;21206;-73
2021/04/25 05:51:54;;;;;;;11.83;5.62;;;;;;;15.63;33.63;100305.30;1636221;86;21387;-79
2021/04/25 05:54:25;;;;;;;11.18;5.78;;;;;;;15.64;33.82;100303.02;1631782;86;21617;-77
2021/04/25 05:56:54;;;;;;;11.18;5.60;;;;;;;15.84;33.00;100301.09;1630924;86;21236;-77
2021/04/25 05:59:25;;;;;;;7.87;5.12;;;;;;;15.89;30.37;100309.66;1611037;86;21677;-80
2021/04/25 06:01:58;;;;;;;10.27;5.50;;;;;;;15.60;31.27;100306.80;1632306;86;21175;-76
2021/04/25 06:04:33;;;;;;;12.88;6.08;;;;;;;15.39;31.32;100306.19;1623256;87;21228;-77
2021/04/25 06:07:06;;;;;;;9.45;4.87;;;;;;;15.21;31.45;100315.98;1632526;86;21585;-78
2021/04/25 06:09:39;;;;;;;8.38;5.42;;;;;;;15.38;32.33;100311.56;1635547;86;21224;-79
2021/04/25 06:12:16;;;;;;;10.45;5.37;;;;;;;15.64;32.37;100305.67;1635034;86;21534;-79
2021/04/25 06:14:59;;;;;;;11.83;5.63;;;;;;;16.13;31.37;100300.78;1616059;86;21191;-77
2021/04/25 06:17:31;;;;;;;10.38;6.17;;;;;;;16.44;32.94;100305.16;1635270;86;22193;-78
2021/04/25 06:20:10;;;;;;;10.18;5.72;;;;;;;16.47;31.29;100306.33;1637978;86;21253;-78
2021/04/25 06:22:44;;;;;;;11.57;6.10;;;;;;;16.28;31.25;100309.66;1631507;86;21212;-78
2021/04/25 06:25:19;;;;;;;10.93;4.95;;;;;;;16.33;31.04;100299.61;1640544;86;21230;-78
2021/04/25 06:27:48;;;;;;;11.48;5.50;;;;;;;16.06;30.08;100298.95;1638283;86;21665;-77
2021/04/25 06:30:21;;;;;;;7.17;4.67;;;;;;;15.78;30.47;100302.77;1652508;86;21453;-79
2021/04/25 06:32:51;;;;;;;8.38;5.25;;;;;;;15.92;30.53;100302.86;1640701;87;21263;-78
2021/04/25 06:35:22;;;;;;;11.68;5.75;;;;;;;16.18;30.78;100301.84;1635905;87;21233;-78
2021/04/25 06:37:51;;;;;;;10.25;5.00;;;;;;;16.48;30.02;100300.05;1653781;86;21229;-75
2021/04/25 06:40:19;;;;;;;9.80;5.65;;;;;;;15.65;31.92;100299.44;1653525;86;21233;-77
2021/04/25 06:42:48;;;;;;;9.45;5.20;;;;;;;15.07;33.35;100302.13;1643438;86;21388;-78
2021/04/25 06:45:21;;;;;;;11.38;5.72;;;;;;;15.30;33.95;100302.22;1648151;84;21320;-78
2021/04/25 06:47:49;;;;;;;12.75;5.72;;;;;;;15.76;32.91;100301.98;1671268;85;21549;-76
2021/04/25 06:50:18;;;;;;;10.45;5.22;;;;;;;15.88;31.49;100293.35;1650128;85;21285;-73
2021/04/25 06:52:47;;;;;;;11.63;5.50;;;;;;;15.77;32.08;100300.58;1672831;84;21202;-76
2021/04/25 06:55:21;;;;;;;10.30;5.35;;;;;;;15.39;32.16;100299.55;1674367;84;21584;-76
2021/04/25 06:57:49;;;;;;;13.43;5.92;;;;;;;15.30;31.74;100306.20;1671607;84;21707;-74
2021/04/25 07:00:19;;;;;;;10.63;5.22;;;;;;;15.49;31.22;100303.88;1687540;84;21204;-76
2021/04/25 07:02:49;;;;;;;10.10;5.37;;;;;;;15.40;30.89;100309.69;1673112;84;21257;-76
2021/04/25 07:05:17;;;;;;;12.90;5.62;;;;;;;15.17;31.29;100305.14;1683610;84;21223;-76
2021/04/25 07:07:45;;;;;;;11.00;5.33;;;;;;;15.14;31.18;100303.98;1678920;84;22846;-76
2021/04/25 07:10:18;;;;;;;15.65;5.62;;;;;;;14.83;32.19;100300.27;1687909;84;21704;-76
2021/04/25 07:12:48;;;;;;;8.10;5.00;;;;;;;14.81;32.66;100304.80;1692803;84;21171;-75
2021/04/25 07:15:16;;;;;;;9.85;5.30;;;;;;;14.88;32.85;100306.22;1671638;84;21226;-76
2021/04/25 07:17:44;;;;;;;9.20;5.45;;;;;;;15.11;32.26;100313.41;1682928;84;21190;-75
2021/04/25 07:20:14;;;;;;;11.35;6.05;;;;;;;14.90;32.75;100310.95;1686870;84;21818;-76
2021/04/25 07:22:43;;;;;;;9.45;5.35;;;;;;;15.03;33.82;100309.00;1681141;84;21214;-76
2021/04/25 07:25:13;;;;;;;10.13;4.78;;;;;;;14.85;33.18;100304.19;1683553;84;21247;-77
2021/04/25 07:27:41;;;;;;;9.23;4.70;;;;;;;15.07;32.67;100309.23;1682925;84;21196;-77
2021/04/25 07:30:12;;;;;;;15.55;5.47;;;;;;;15.17;31.65;100306.47;1678198;84;21651;-77
2021/04/25 07:32:42;;;;;;;8.77;4.70;;;;;;;14.99;31.75;100307.44;1677645;84;21191;-78
2021/04/25 07:35:12;;;;;;;9.73;4.97;;;;;;;14.93;31.40;100311.28;1682040;84;21163;-75
2021/04/25 07:37:40;;;;;;;9.05;5.12;;;;;;;15.18;31.22;100309.97;1682982;84;21220;-75
2021/04/25 07:40:08;;;;;;;10.13;4.90;;;;;;;14.92;31.49;100307.38;1682177;84;21694;-75
2021/04/25 07:42:40;;;;;;;10.23;4.92;;;;;;;14.51;31.47;100311.17;1666138;85;22237;-78
2021/04/25 07:45:14;;;;;;;9.73;5.05;;;;;;;13.86;31.95;100301.56;1668390;85;22070;-79
2021/04/25 07:47:43;;;;;;;8.15;4.85;;;;;;;12.95;33.37;100314.07;1619361;87;21484;-78
2021/04/25 07:50:13;;;;;;;9.88;5.00;;;;;;;12.66;34.69;100317.52;1669004;84;21239;-79
2021/04/25 07:52:42;;;;;;;9.58;4.95;;;;;;;12.72;35.78;100314.63;1665297;85;21631;-80
2021/04/25 07:55:10;;;;;;;12.35;6.00;;;;;;;12.67;36.10;100317.91;1673719;84;21666;-78
2021/04/25 07:57:39;;;;;;;9.20;5.17;;;;;;;12.41;36.88;100320.80;1675005;84;22314;-79
2021/04/25 08:00:11;;;;;;;10.65;6.25;;;;;;;12.47;38.50;100317.45;1680912;84;21191;-78
2021/04/25 08:02:39;;;;;;;;;;;;;;;12.55;37.72;100318.44;1669413;84;21300;-77
2021/04/25 08:05:09;;;;;;;11.68;6.33;;;;;;;12.54;38.21;100318.05;1661807;85;20291;-78
2021/04/25 08:07:38;;;;;;;10.85;5.45;;;;;;;12.34;37.53;100317.09;1662820;85;21219;-77
2021/04/25 08:10:08;;;;;;;11.90;4.92;;;;;;;12.17;38.23;100320.43;1664262;84;21409;-78
2021/04/25 08:12:36;;;;;;;10.80;5.92;;;;;;;12.10;37.72;100315.44;1662820;84;21192;-78
2021/04/25 08:15:06;;;;;;;12.00;6.28;;;;;;;12.23;37.35;100319.30;1669780;85;21205;-76
2021/04/25 08:17:33;;;;;;;10.10;5.83;;;;;;;12.54;37.41;100311.45;1654494;85;21210;-77
2021/04/25 08:20:04;;;;;;;8.85;5.00;;;;;;;13.05;37.31;100306.15;1645040;85;21205;-77
2021/04/25 08:22:33;;;;;;;10.55;5.83;;;;;;;13.71;36.23;100300.52;1664791;84;21379;-77
2021/04/25 08:25:01;;;;;;;12.20;6.72;;;;;;;14.29;35.40;100291.53;1668980;84;21701;-78
2021/04/25 08:27:29;;;;;;;12.18;6.08;;;;;;;14.61;34.51;100281.14;1667425;84;21218;-78
2021/04/25 08:29:57;;;;;;;10.23;6.12;;;;;;;15.02;33.95;100278.98;1668752;84;21188;-77
2021/04/25 08:32:25;;;;;;;10.32;5.28;;;;;;;15.35;33.60;100277.25;1663820;84;22139;-76
2021/04/25 08:34:53;;;;;;;9.43;5.00;;;;;;;15.46;32.54;100283.67;1667952;84;21790;-76
2021/04/25 08:37:21;;;;;;;11.57;5.50;;;;;;;15.44;32.29;100282.05;1648884;84;21268;-76
2021/04/25 08:39:49;;;;;;;11.43;5.47;;;;;;;15.50;32.23;100274.58;1614048;87;21273;-76
2021/04/25 08:42:17;;;;;;;10.53;5.67;;;;;;;15.79;32.17;100262.85;1620570;87;21677;-78
2021/04/25 08:44:48;;;;;;;12.07;5.62;;;;;;;16.11;31.15;100276.95;1661826;84;21212;-76
2021/04/25 08:47:17;;;;;;;9.53;4.95;;;;;;;16.34;30.42;100272.11;1657858;85;21337;-77
2021/04/25 08:49:47;;;;;;;11.55;5.67;;;;;;;16.10;30.83;100258.43;1630154;87;21235;-76
2021/04/25 08:52:15;;;;;;;8.78;5.40;;;;;;;15.88;30.80;100264.14;1622134;86;21232;-77
2021/04/25 08:54:43;;;;;;;9.88;5.22;;;;;;;15.56;31.08;100272.07;1625496;86;21240;-74
2021/04/25 08:57:11;;;;;;;11.30;5.33;;;;;;;15.21;31.45;100270.88;1605817;85;21231;-75
2021/04/25 08:59:40;;;;;;;9.88;4.75;;;;;;;14.77;31.57;100276.76;1630674;87;21414;-75
2021/04/25 09:02:08;;;;;;;10.15;5.75;;;;;;;14.35;32.16;100271.34;1626170;86;21174;-75
2021/04/25 09:04:37;;;;;;;9.20;5.22;;;;;;;13.70;32.97;100274.97;1669395;84;21198;-73
2021/04/25 09:07:09;;;;;;;9.28;4.80;;;;;;;13.14;33.58;100279.30;1673861;84;21685;-74
2021/04/25 09:09:57;;;;;;;9.33;4.80;;;;;;;12.71;34.67;100273.26;1652664;85;21257;-74
2021/04/25 09:12:44;;;;;;;8.18;4.95;;;;;;;12.41;36.13;100267.98;1651761;85;21822;-77
2021/04/25 09:15:19;;;;;;;10.48;5.75;;;;;;;12.08;38.85;100280.35;1678302;84;21186;-77
2021/04/25 09:17:57;;;;;;;8.43;5.20;;;;;;;11.85;37.07;100274.19;1688796;84;21192;-75
2021/04/25 09:20:39;;;;;;;8.98;5.72;;;;;;;11.67;36.74;100274.91;1674196;85;21215;-76
2021/04/25 09:23:11;;;;;;;10.38;5.72;;;;;;;11.64;37.68;100270.62;1656395;84;21681;-77
2021/04/25 09:25:40;;;;;;;7.70;4.78;;;;;;;11.90;38.04;100268.28;1680475;84;21835;-75
2021/04/25 09:28:15;;;;;;;8.10;4.70;;;;;;;12.28;37.77;100276.87;1684638;84;21202;-74
2021/04/25 09:31:02;;;;;;;11.50;5.50;;;;;;;12.69;38.09;100267.65;1673436;81;21855;-81
2021/04/25 09:33:55;;;;;;;10.20;5.60;;;;;;;12.92;37.87;100269.28;1676925;84;21484;-81
2021/04/25 09:36:28;;;;;;;11.83;5.85;;;;;;;13.08;38.27;100261.05;1666808;84;21206;-82
2021/04/25 09:39:13;;;;;;;8.83;5.67;;;;;;;13.15;37.74;100252.38;1669200;84;21342;-82
2021/04/25 09:41:50;;;;;;;13.05;6.20;;;;;;;13.12;37.27;100245.92;1789043;79;23844;-81
2021/04/25 09:44:37;;;;;;;10.93;5.83;;;;;;;12.96;37.15;100254.53;1764854;80;21147;-80
2021/04/25 09:47:06;;;;;;;9.75;5.75;;;;;;;12.96;38.01;100252.36;1676409;76;22511;-81
2021/04/25 09:49:52;;;;;;;12.28;5.35;;;;;;;13.11;38.85;100250.36;1687185;83;21686;-79
2021/04/25 09:52:37;;;;;;;9.30;5.22;;;;;;;13.35;38.32;100247.06;1692221;83;21654;-80
2021/04/25 09:55:18;;;;;;;9.50;5.80;;;;;;;13.56;36.26;100257.09;1687085;83;21638;-71
2021/04/25 09:57:49;;;;;;;9.83;5.45;;;;;;;13.51;34.85;100241.91;1680121;83;21203;-79
2021/04/25 10:00:23;;;;;;;9.70;5.75;;;;;;;13.20;35.54;100246.41;1678435;83;21665;31
2021/04/25 10:02:56;;;;;;;8.33;5.55;;;;;;;12.91;35.27;100247.75;1680135;83;21232;-73
2021/04/25 10:05:26;;;;;;;10.05;5.95;;;;;;;12.63;36.17;100246.33;1645419;85;21557;-73
2021/04/25 10:07:54;;;;;;;8.88;4.90;;;;;;;12.27;37.22;100239.52;1644492;84;21246;-73
2021/04/25 10:10:23;;;;;;;9.95;5.67;;;;;;;12.17;37.94;100236.41;1665306;84;21270;-74
2021/04/25 10:12:51;;;;;;;10.38;5.08;;;;;;;12.10;38.64;100243.73;1651114;85;22108;-73
2021/04/25 10:15:21;;;;;;;8.55;5.15;;;;;;;12.02;39.07;100248.45;1653871;84;22416;-72
2021/04/25 10:17:56;;;;;;;7.28;4.40;;;;;;;12.00;39.88;100245.48;1673439;84;21255;-73
2021/04/25 10:20:24;;;;;;;9.28;4.90;;;;;;;12.03;39.99;100242.70;1674550;84;21215;-73
2021/04/25 10:22:54;;;;;;;8.30;5.03;;;;;;;12.06;38.81;100242.59;1676737;84;21168;-73
2021/04/25 10:25:34;;;;;;;11.15;5.28;;;;;;;12.12;39.85;100239.24;1662434;84;21857;-72
2021/04/25 10:28:15;;;;;;;13.70;5.70;;;;;;;12.24;39.06;100239.19;1649821;85;21643;-74
2021/04/25 10:30:43;;;;;;;11.55;5.28;;;;;;;12.54;39.43;100237.02;1660917;84;21212;-72
2021/04/25 10:33:12;;;;;;;11.38;5.47;;;;;;;12.92;37.86;100247.66;1659617;84;21243;-72
2021/04/25 10:35:55;;;;;;;8.20;5.17;;;;;;;13.34;36.79;100243.16;1649011;85;21775;-72
2021/04/25 10:38:37;;;;;;;10.45;5.33;;;;;;;13.70;36.46;100235.27;1650240;85;22049;-73
2021/04/25 10:41:21;;;;;;;15.28;5.95;;;;;;;14.26;36.30;100233.39;1681855;84;21507;-72
2021/04/25 10:44:05;;;;;;;13.13;5.10;;;;;;;14.87;35.58;100230.25;1669643;85;21210;-72
2021/04/25 10:46:59;;;;;;;7.65;4.28;;;;;;;15.29;33.53;100220.89;1660889;84;21210;-71
2021/04/25 10:49:40;;;;;;;9.30;5.28;;;;;;;15.49;33.11;100214.48;1675256;84;21198;-73
2021/04/25 10:52:31;;;;;;;9.13;4.80;;;;;;;15.56;31.92;100224.30;1676528;84;21374;-73
2021/04/25 10:55:19;;;;;;;6.25;4.60;;;;;;;15.53;31.36;100225.80;1662823;85;21484;-87
2021/04/25 10:58:02;;;;;;;11.75;4.67;;;;;;;15.41;33.59;100215.85;1672095;85;21227;-76
2021/04/25 11:00:44;;;;;;;7.37;4.60;;;;;;;15.40;31.65;100212.35;1669361;85;21215;-71
2021/04/25 11:03:27;;;;;;;11.00;4.53;;;;;;;15.57;31.05;100214.05;1665004;84;21576;-79
2021/04/25 11:05:55;;;;;;;10.08;5.05;;;;;;;15.80;30.02;100214.58;1663452;84;22368;-75
2021/04/25 11:08:39;;;;;;;9.65;4.78;;;;;;;16.08;30.10;100206.73;1665413;84;21560;-75
2021/04/25 11:13:49;;;;;;;14.03;5.20;;;;;;;15.93;31.16;100194.34;1826337;76;22909;-74
2021/04/25 11:16:29;;;;;;;13.03;4.97;;;;;;;15.42;30.22;100202.98;1792132;79;21057;-75
2021/04/25 11:19:09;;;;;;;;;;;;;;;15.11;32.04;100213.95;1792881;79;21636;-76
2021/04/25 11:21:49;;;;;;;9.13;4.55;;;;;;;14.91;30.29;100199.14;1800902;78;20311;-75
2021/04/25 11:24:26;;;;;;;9.73;4.80;;;;;;;14.63;30.52;100203.70;1797040;79;28329;-76
2021/04/25 11:26:56;;;;;;;10.63;5.37;;;;;;;14.34;31.46;100200.75;1803545;78;21198;-75
2021/04/25 11:29:42;;;;;;;8.60;4.83;;;;;;;13.99;32.15;100205.20;1796092;79;21171;-77
2021/04/25 11:32:26;;;;;;;9.53;5.05;;;;;;;13.58;33.28;100204.97;1799113;79;22694;-76
2021/04/25 11:35:00;;;;;;;8.60;4.33;;;;;;;13.27;35.50;100207.31;1792448;79;21618;-74
2021/04/25 11:38:50;;;;;;;11.10;5.12;;;;;;;12.71;34.33;100215.12;1796149;79;22017;-76